createdAt,value
2018-07-30T00:01:25.113Z,2.67
2018-07-30T00:03:28.224Z,2.70
2018-07-30T00:05:31.336Z,2.70
2018-07-30T00:07:34.501Z,1.93
2018-07-30T00:09:37.611Z,2.43
2018-07-30T00:11:41.200Z,2.47
2018-07-30T00:13:44.924Z,2.47
2018-07-30T00:15:48.048Z,3.20
2018-07-30T00:17:51.157Z,2.70
2018-07-30T00:19:54.315Z,2.90
2018-07-30T00:21:57.436Z,2.10
2018-07-30T00:24:00.577Z,2.70
2018-07-30T00:26:03.688Z,2.80
2018-07-30T00:28:06.795Z,2.47
2018-07-30T00:30:09.925Z,2.13
2018-07-30T00:32:13.062Z,2.73
2018-07-30T00:34:16.231Z,2.17
2018-07-30T00:36:19.371Z,2.50
2018-07-30T00:38:22.488Z,2.20
2018-07-30T00:40:25.600Z,2.50
2018-07-30T00:42:28.722Z,2.10
2018-07-30T00:44:31.889Z,3.57
2018-07-30T00:46:35.155Z,2.50
2018-07-30T00:48:38.294Z,2.20
2018-07-30T00:50:41.412Z,2.23
2018-07-30T00:52:44.528Z,2.00
2018-07-30T00:54:47.652Z,2.37
2018-07-30T00:56:50.802Z,3.13
2018-07-30T00:58:53.972Z,2.70
2018-07-30T01:00:57.103Z,2.57
2018-07-30T01:03:00.236Z,2.60
2018-07-30T01:05:03.355Z,2.23
2018-07-30T01:07:07.188Z,2.60
2018-07-30T01:09:11.040Z,2.10
2018-07-30T01:11:14.152Z,2.50
2018-07-30T01:13:17.291Z,2.53
2018-07-30T01:15:21.431Z,2.70
2018-07-30T01:17:24.540Z,2.30
2018-07-30T01:19:27.640Z,2.20
2018-07-30T01:21:30.802Z,2.13
2018-07-30T01:23:33.884Z,2.50
2018-07-30T01:25:37.012Z,2.93
2018-07-30T01:27:40.243Z,2.73
2018-07-30T01:29:43.376Z,2.90
2018-07-30T01:31:46.483Z,2.60
2018-07-30T01:33:49.591Z,2.10
2018-07-30T01:35:52.703Z,1.83
2018-07-30T01:37:55.816Z,2.23
2018-07-30T01:39:59.411Z,2.37
2018-07-30T01:42:02.544Z,2.10
2018-07-30T01:44:05.677Z,2.67
2018-07-30T01:46:08.799Z,2.80
2018-07-30T01:48:11.931Z,2.20
2018-07-30T01:50:15.058Z,2.40
2018-07-30T01:52:18.181Z,2.30
2018-07-30T01:54:21.305Z,2.80
2018-07-30T01:56:24.436Z,3.00
2018-07-30T01:58:27.576Z,3.30
2018-07-30T02:00:30.696Z,3.23
2018-07-30T02:02:38.107Z,2.90
2018-07-30T02:04:42.094Z,2.60
2018-07-30T02:06:45.204Z,2.50
2018-07-30T02:08:48.304Z,3.43
2018-07-30T02:10:51.420Z,2.37
2018-07-30T02:12:54.527Z,2.57
2018-07-30T02:14:57.682Z,3.00
2018-07-30T02:17:00.783Z,3.30
2018-07-30T02:19:03.879Z,2.40
2018-07-30T02:21:07.091Z,2.80
2018-07-30T02:23:10.308Z,2.30
2018-07-30T02:25:13.423Z,2.70
2018-07-30T02:27:16.519Z,2.97
2018-07-30T02:29:19.615Z,2.20
2018-07-30T02:31:22.718Z,2.27
2018-07-30T02:33:25.800Z,2.47
2018-07-30T02:35:28.892Z,3.00
2018-07-30T02:37:33.000Z,3.10
2018-07-30T02:39:36.086Z,2.57
2018-07-30T02:41:39.217Z,2.70
2018-07-30T02:43:42.331Z,3.03
2018-07-30T02:45:46.316Z,2.77
2018-07-30T02:47:49.430Z,2.40
2018-07-30T02:49:52.528Z,2.70
2018-07-30T02:51:55.624Z,2.43
2018-07-30T02:53:58.721Z,2.43
2018-07-30T02:56:01.804Z,2.70
2018-07-30T02:58:04.908Z,2.53
2018-07-30T03:00:08.555Z,2.90
2018-07-30T03:02:11.643Z,2.87
2018-07-30T03:04:14.736Z,3.57
2018-07-30T03:06:17.855Z,3.07
2018-07-30T03:08:20.975Z,2.80
2018-07-30T03:10:24.106Z,2.97
2018-07-30T03:12:27.217Z,3.30
2018-07-30T03:14:30.331Z,3.80
2018-07-30T03:16:33.447Z,3.00
2018-07-30T03:18:36.600Z,2.87
2018-07-30T03:20:39.711Z,3.17
2018-07-30T03:22:42.826Z,2.70
2018-07-30T03:24:45.952Z,3.70
2018-07-30T03:26:49.055Z,3.20
2018-07-30T03:28:52.807Z,3.30
2018-07-30T03:30:55.806Z,2.63
2018-07-30T03:32:58.932Z,2.90
2018-07-30T03:35:02.068Z,3.50
2018-07-30T03:37:05.222Z,2.63
2018-07-30T03:39:09.149Z,2.30
2018-07-30T03:41:12.299Z,3.10
2018-07-30T03:43:15.411Z,2.87
2018-07-30T03:45:18.552Z,3.47
2018-07-30T03:47:21.656Z,3.20
2018-07-30T03:49:24.786Z,2.90
2018-07-30T03:51:27.897Z,3.67
2018-07-30T03:53:31.052Z,2.77
2018-07-30T03:55:34.175Z,3.40
2018-07-30T03:57:37.303Z,4.13
2018-07-30T03:59:40.668Z,2.77
2018-07-30T04:01:43.791Z,3.50
2018-07-30T04:03:46.945Z,4.87
2018-07-30T04:05:50.126Z,2.80
2018-07-30T04:07:53.205Z,3.30
2018-07-30T04:09:56.266Z,3.90
2018-07-30T04:11:59.848Z,3.83
2018-07-30T04:14:02.947Z,3.50
2018-07-30T04:16:06.073Z,3.67
2018-07-30T04:18:09.184Z,4.30
2018-07-30T04:20:12.287Z,3.10
2018-07-30T04:22:15.443Z,3.30
2018-07-30T04:24:18.479Z,3.13
2018-07-30T04:26:21.567Z,3.07
2018-07-30T04:28:24.680Z,3.10
2018-07-30T04:30:27.788Z,3.17
2018-07-30T04:32:30.885Z,3.33
2018-07-30T04:34:33.988Z,3.33
2018-07-30T04:36:37.620Z,4.00
2018-07-30T04:38:40.772Z,3.23
2018-07-30T04:40:43.897Z,3.00
2018-07-30T04:42:46.973Z,3.63
2018-07-30T04:44:50.098Z,3.10
2018-07-30T04:46:53.229Z,3.20
2018-07-30T04:48:56.331Z,3.20
2018-07-30T04:50:59.423Z,3.10
2018-07-30T04:53:02.561Z,3.30
2018-07-30T04:55:05.670Z,4.00
2018-07-30T04:57:08.768Z,2.53
2018-07-30T04:59:11.880Z,2.50
2018-07-30T05:01:14.975Z,2.80
2018-07-30T05:03:19.080Z,2.57
2018-07-30T05:05:22.180Z,3.23
2018-07-30T05:07:25.076Z,2.90
2018-07-30T05:09:28.219Z,3.40
2018-07-30T05:11:31.323Z,2.90
2018-07-30T05:13:34.443Z,3.30
2018-07-30T05:15:37.574Z,3.17
2018-07-30T05:17:40.679Z,3.00
2018-07-30T05:19:43.812Z,3.70
2018-07-30T05:21:46.926Z,2.67
2018-07-30T05:23:50.043Z,3.07
2018-07-30T05:25:53.214Z,3.03
2018-07-30T05:27:56.336Z,3.87
2018-07-30T05:29:59.578Z,3.13
2018-07-30T05:32:02.720Z,3.60
2018-07-30T05:34:05.851Z,4.43
2018-07-30T05:36:09.260Z,4.23
2018-07-30T05:38:12.384Z,4.77
2018-07-30T05:40:15.512Z,3.60
2018-07-30T05:42:18.619Z,3.93
2018-07-30T05:44:21.575Z,3.07
2018-07-30T05:46:24.691Z,4.00
2018-07-30T05:48:28.232Z,3.63
2018-07-30T05:50:32.620Z,2.80
2018-07-30T05:52:35.748Z,2.90
2018-07-30T05:54:38.855Z,2.70
2018-07-30T05:56:41.972Z,3.83
2018-07-30T05:58:45.088Z,3.43
2018-07-30T06:00:48.096Z,3.20
2018-07-30T06:02:51.688Z,3.20
2018-07-30T06:04:54.586Z,2.40
2018-07-30T06:06:57.479Z,2.67
2018-07-30T06:09:00.439Z,3.30
2018-07-30T06:11:03.551Z,3.53
2018-07-30T06:13:06.647Z,2.43
2018-07-30T06:15:09.525Z,2.60
2018-07-30T06:17:12.461Z,2.30
2018-07-30T06:19:15.554Z,2.17
2018-07-30T06:21:18.538Z,2.30
2018-07-30T06:23:21.501Z,2.10
2018-07-30T06:25:24.439Z,2.33
2018-07-30T06:27:27.419Z,2.10
2018-07-30T06:29:30.644Z,2.67
2018-07-30T06:31:33.531Z,2.50
2018-07-30T06:33:36.532Z,1.93
2018-07-30T06:35:39.495Z,2.10
2018-07-30T06:37:42.378Z,2.27
2018-07-30T06:39:45.275Z,1.87
2018-07-30T06:41:48.380Z,1.50
2018-07-30T06:43:51.475Z,1.67
2018-07-30T06:45:54.578Z,1.53
2018-07-30T06:47:57.747Z,1.70
2018-07-30T06:50:00.575Z,1.40
2018-07-30T06:52:03.563Z,1.70
2018-07-30T06:54:06.488Z,1.53
2018-07-30T06:56:09.351Z,1.27
2018-07-30T06:58:12.318Z,1.47
2018-07-30T07:00:15.195Z,1.83
2018-07-30T07:02:18.094Z,1.50
2018-07-30T07:04:21.547Z,1.80
2018-07-30T07:06:24.658Z,2.67
2018-07-30T07:08:27.783Z,2.10
2018-07-30T07:10:30.916Z,2.00
2018-07-30T07:12:34.048Z,2.30
2018-07-30T07:14:37.172Z,1.93
2018-07-30T07:16:40.433Z,2.10
2018-07-30T07:18:43.502Z,1.90
2018-07-30T07:20:46.446Z,2.67
2018-07-30T07:22:49.562Z,2.27
2018-07-30T07:24:52.469Z,2.70
2018-07-30T07:26:55.417Z,2.37
2018-07-30T07:28:58.504Z,2.27
2018-07-30T07:31:01.486Z,2.10
2018-07-30T07:33:04.530Z,2.47
2018-07-30T07:35:07.541Z,2.30
2018-07-30T07:37:10.424Z,2.10
2018-07-30T07:39:14.547Z,2.57
2018-07-30T07:41:17.483Z,2.20
2018-07-30T07:43:21.505Z,2.73
2018-07-30T07:45:24.472Z,3.30
2018-07-30T07:47:27.445Z,2.50
2018-07-30T07:49:30.343Z,2.07
2018-07-30T07:51:33.242Z,2.20
2018-07-30T07:53:36.313Z,2.17
2018-07-30T07:55:39.295Z,2.17
2018-07-30T07:57:42.187Z,2.60
2018-07-30T07:59:45.170Z,2.20
2018-07-30T08:01:48.098Z,2.63
2018-07-30T08:03:51.067Z,2.37
2018-07-30T08:05:54.435Z,2.40
2018-07-30T08:07:57.332Z,2.40
2018-07-30T08:10:00.239Z,2.17
2018-07-30T08:12:03.140Z,2.33
2018-07-30T08:14:06.257Z,2.73
2018-07-30T08:16:09.202Z,1.90
2018-07-30T08:18:12.078Z,3.07
2018-07-30T08:20:15.080Z,2.80
2018-07-30T08:22:17.979Z,2.57
2018-07-30T08:24:21.014Z,2.10
2018-07-30T08:26:24.008Z,2.13
2018-07-30T08:28:26.887Z,2.57
2018-07-30T08:30:29.883Z,2.07
2018-07-30T08:32:32.859Z,2.47
2018-07-30T08:34:36.000Z,2.27
2018-07-30T08:36:39.135Z,2.73
2018-07-30T08:38:42.112Z,1.80
2018-07-30T08:40:45.292Z,2.70
2018-07-30T08:42:48.187Z,2.40
2018-07-30T08:44:51.320Z,2.47
2018-07-30T08:46:54.433Z,2.43
2018-07-30T08:48:57.542Z,2.60
2018-07-30T08:51:00.669Z,2.17
2018-07-30T08:53:03.561Z,2.00
2018-07-30T08:55:06.832Z,2.80
2018-07-30T08:57:09.778Z,2.80
2018-07-30T08:59:12.664Z,2.33
2018-07-30T09:01:15.636Z,2.80
2018-07-30T09:03:18.612Z,2.50
2018-07-30T09:05:21.622Z,2.10
2018-07-30T09:07:24.764Z,2.40
2018-07-30T09:09:28.752Z,2.50
2018-07-30T09:11:31.883Z,3.20
2018-07-30T09:13:35.006Z,2.87
2018-07-30T09:15:38.119Z,2.70
2018-07-30T09:17:41.022Z,2.50
2018-07-30T09:19:43.923Z,2.37
2018-07-30T09:21:46.814Z,2.30
2018-07-30T09:23:49.706Z,2.27
2018-07-30T09:25:52.646Z,2.50
2018-07-30T09:27:55.884Z,2.20
2018-07-30T09:29:58.799Z,3.30
2018-07-30T09:32:01.680Z,3.27
2018-07-30T09:34:04.596Z,2.63
2018-07-30T09:36:07.487Z,2.50
2018-07-30T09:38:10.400Z,3.00
2018-07-30T09:40:13.283Z,2.87
2018-07-30T09:42:16.166Z,3.67
2018-07-30T09:44:19.316Z,3.40
2018-07-30T09:46:22.431Z,3.83
2018-07-30T09:48:25.564Z,3.13
2018-07-30T09:50:28.743Z,2.27
2018-07-30T09:52:31.575Z,3.00
2018-07-30T09:54:34.683Z,3.30
2018-07-30T09:56:37.839Z,2.70
2018-07-30T09:58:40.960Z,2.90
2018-07-30T10:00:49.614Z,2.43
2018-07-30T10:02:52.731Z,2.53
2018-07-30T10:04:55.868Z,2.30
2018-07-30T10:06:58.997Z,2.67
2018-07-30T10:09:02.109Z,2.83
2018-07-30T10:11:05.235Z,3.13
2018-07-30T10:13:08.336Z,3.47
2018-07-30T10:15:11.270Z,3.17
2018-07-30T10:17:14.387Z,2.57
2018-07-30T10:19:17.471Z,2.50
2018-07-30T10:21:20.553Z,3.00
2018-07-30T10:23:23.660Z,2.40
2018-07-30T10:25:26.599Z,2.37
2018-07-30T10:27:29.692Z,2.40
2018-07-30T10:29:32.808Z,2.07
2018-07-30T10:31:35.741Z,2.50
2018-07-30T10:33:38.835Z,2.97
2018-07-30T10:35:41.920Z,2.83
2018-07-30T10:37:45.032Z,3.30
2018-07-30T10:39:48.193Z,2.47
2018-07-30T10:41:51.255Z,2.53
2018-07-30T10:43:54.371Z,2.40
2018-07-30T10:45:57.492Z,2.07
2018-07-30T10:48:00.843Z,2.30
2018-07-30T10:50:03.837Z,2.20
2018-07-30T10:52:06.911Z,2.10
2018-07-30T10:54:09.779Z,2.10
2018-07-30T10:56:12.654Z,2.87
2018-07-30T10:58:15.542Z,2.23
2018-07-30T11:00:18.639Z,2.13
2018-07-30T11:02:21.716Z,2.00
2018-07-30T11:04:24.826Z,2.47
2018-07-30T11:06:27.944Z,2.70
2018-07-30T11:08:31.069Z,2.27
2018-07-30T11:10:34.204Z,2.07
2018-07-30T11:12:37.319Z,3.00
2018-07-30T11:14:40.500Z,2.10
2018-07-30T11:16:43.567Z,2.47
2018-07-30T11:18:46.691Z,1.87
2018-07-30T11:20:49.934Z,2.80
2018-07-30T11:22:52.851Z,2.50
2018-07-30T11:24:55.966Z,2.10
2018-07-30T11:26:59.088Z,1.90
2018-07-30T11:29:02.214Z,2.40
2018-07-30T11:31:05.348Z,2.00
2018-07-30T11:33:08.299Z,2.50
2018-07-30T11:35:11.409Z,2.00
2018-07-30T11:37:14.296Z,2.83
2018-07-30T11:39:17.435Z,2.40
2018-07-30T11:41:20.576Z,2.40
2018-07-30T11:43:23.796Z,2.57
2018-07-30T11:45:26.931Z,3.10
2018-07-30T11:47:29.892Z,2.87
2018-07-30T11:49:33.155Z,2.50
2018-07-30T11:51:36.439Z,3.73
2018-07-30T11:53:39.580Z,3.33
2018-07-30T11:55:42.786Z,2.40
2018-07-30T11:57:45.884Z,2.17
2018-07-30T11:59:49.007Z,2.50
2018-07-30T12:01:52.182Z,2.87
2018-07-30T12:03:55.279Z,3.30
2018-07-30T12:05:58.254Z,3.50
2018-07-30T12:08:01.226Z,2.97
2018-07-30T12:10:04.155Z,2.67
2018-07-30T12:12:07.259Z,3.40
2018-07-30T12:14:10.361Z,3.20
2018-07-30T12:16:13.443Z,3.10
2018-07-30T12:18:16.532Z,3.33
2018-07-30T12:20:19.640Z,3.60
2018-07-30T12:22:22.766Z,3.20
2018-07-30T12:24:25.867Z,3.87
2018-07-30T12:26:28.968Z,2.73
2018-07-30T12:28:32.048Z,3.00
2018-07-30T12:30:35.260Z,3.03
2018-07-30T12:32:38.346Z,4.00
2018-07-30T12:34:41.395Z,2.90
2018-07-30T12:36:44.479Z,2.70
2018-07-30T12:38:47.575Z,2.73
2018-07-30T12:40:50.667Z,2.90
2018-07-30T12:42:53.784Z,3.97
2018-07-30T12:44:56.920Z,2.80
2018-07-30T12:46:59.992Z,3.23
2018-07-30T12:49:03.246Z,3.10
2018-07-30T12:51:06.143Z,2.00
2018-07-30T12:53:09.261Z,2.97
2018-07-30T12:55:12.348Z,2.90
2018-07-30T12:57:15.456Z,2.97
2018-07-30T12:59:18.620Z,2.47
2018-07-30T13:01:21.827Z,2.40
2018-07-30T13:03:24.995Z,2.60
2018-07-30T13:05:28.740Z,2.27
2018-07-30T13:07:31.878Z,2.67
2018-07-30T13:09:35.007Z,2.70
2018-07-30T13:11:38.149Z,2.30
2018-07-30T13:13:41.321Z,2.50
2018-07-30T13:15:44.409Z,2.97
2018-07-30T13:17:47.560Z,3.00
2018-07-30T13:19:50.428Z,5.07
2018-07-30T13:21:53.568Z,4.30
2018-07-30T13:23:56.745Z,3.13
2018-07-30T13:25:59.863Z,3.50
2018-07-30T13:28:03.180Z,2.53
2018-07-30T13:30:07.443Z,2.53
2018-07-30T13:32:10.551Z,1.80
2018-07-30T13:34:13.756Z,2.13
2018-07-30T13:36:17.032Z,1.67
2018-07-30T13:38:20.220Z,1.80
2018-07-30T13:40:23.390Z,2.37
2018-07-30T13:42:26.503Z,2.00
2018-07-30T13:44:29.660Z,1.87
2018-07-30T13:46:32.528Z,2.00
2018-07-30T13:48:35.452Z,2.00
2018-07-30T13:50:38.618Z,1.90
2018-07-30T13:52:41.724Z,1.50
2018-07-30T13:54:44.856Z,2.00
2018-07-30T13:56:47.971Z,2.00
2018-07-30T13:58:51.090Z,1.70
2018-07-30T14:00:54.213Z,1.70
2018-07-30T14:02:57.331Z,1.70
2018-07-30T14:05:00.560Z,1.23
2018-07-30T14:07:03.451Z,1.80
2018-07-30T14:09:08.951Z,1.73
2018-07-30T14:11:12.063Z,1.63
2018-07-30T14:13:15.230Z,1.60
2018-07-30T14:15:18.396Z,1.87
2018-07-30T14:17:21.598Z,2.50
2018-07-30T14:19:24.724Z,1.97
2018-07-30T14:21:27.828Z,2.23
2018-07-30T14:23:31.933Z,1.50
2018-07-30T14:25:35.064Z,1.77
2018-07-30T14:27:38.183Z,1.50
2018-07-30T14:29:41.320Z,1.50
2018-07-30T14:31:44.203Z,1.77
2018-07-30T14:33:47.201Z,1.40
2018-07-30T14:35:50.319Z,1.23
2018-07-30T14:37:53.282Z,1.50
2018-07-30T14:39:56.402Z,1.30
2018-07-30T14:41:59.616Z,1.10
2018-07-30T14:44:02.760Z,1.27
2018-07-30T14:46:06.008Z,1.07
2018-07-30T14:48:09.128Z,1.40
2018-07-30T14:50:12.276Z,1.27
2018-07-30T14:52:15.379Z,1.30
2018-07-30T14:54:18.268Z,1.20
2018-07-30T14:56:21.218Z,1.40
2018-07-30T14:58:24.327Z,1.10
2018-07-30T15:00:27.452Z,1.30
2018-07-30T15:02:30.571Z,1.40
2018-07-30T15:04:33.764Z,1.40
2018-07-30T15:06:37.056Z,1.33
2018-07-30T15:08:40.164Z,1.30
2018-07-30T15:10:43.119Z,1.20
2018-07-30T15:12:46.217Z,1.53
2018-07-30T15:14:49.313Z,1.57
2018-07-30T15:16:52.423Z,1.20
2018-07-30T15:18:55.519Z,1.50
2018-07-30T15:20:58.632Z,1.30
2018-07-30T15:23:01.732Z,1.50
2018-07-30T15:25:05.112Z,1.00
2018-07-30T15:27:08.408Z,1.10
2018-07-30T15:29:11.527Z,1.30
2018-07-30T15:31:14.619Z,1.30
2018-07-30T15:33:17.740Z,0.97
2018-07-30T15:35:20.810Z,1.23
2018-07-30T15:37:23.909Z,1.40
2018-07-30T15:39:27.100Z,1.53
2018-07-30T15:41:30.195Z,1.40
2018-07-30T15:43:33.287Z,1.50
2018-07-30T15:45:36.375Z,1.37
2018-07-30T15:47:39.460Z,1.20
2018-07-30T15:49:42.563Z,1.47
2018-07-30T15:51:45.663Z,1.40
2018-07-30T15:53:48.793Z,1.43
2018-07-30T15:55:51.871Z,1.60
2018-07-30T15:57:54.976Z,1.77
2018-07-30T15:59:58.059Z,1.60
2018-07-30T16:02:01.173Z,1.70
2018-07-30T16:04:04.281Z,1.50
2018-07-30T16:06:07.404Z,1.40
2018-07-30T16:08:10.498Z,1.63
2018-07-30T16:10:13.629Z,1.33
2018-07-30T16:12:16.504Z,1.43
2018-07-30T16:14:19.406Z,1.40
2018-07-30T16:16:22.260Z,1.70
2018-07-30T16:18:25.143Z,1.47
2018-07-30T16:20:28.097Z,1.50
2018-07-30T16:22:31.183Z,1.40
2018-07-30T16:24:34.935Z,1.70
2018-07-30T16:26:38.152Z,1.50
2018-07-30T16:28:41.263Z,2.30
2018-07-30T16:30:44.399Z,1.53
2018-07-30T16:32:48.159Z,1.90
2018-07-30T16:34:51.323Z,2.13
2018-07-30T16:36:54.432Z,1.63
2018-07-30T16:38:57.524Z,1.60
2018-07-30T16:41:00.399Z,1.43
2018-07-30T16:43:05.379Z,1.80
2018-07-30T16:45:09.209Z,1.80
2018-07-30T16:47:12.332Z,1.80
2018-07-30T16:49:15.416Z,1.67
2018-07-30T16:51:18.723Z,1.33
2018-07-30T16:53:21.961Z,1.80
2018-07-30T16:55:24.987Z,1.70
2018-07-30T16:57:28.088Z,1.67
2018-07-30T16:59:31.178Z,1.80
2018-07-30T17:01:34.251Z,3.53
2018-07-30T17:03:37.368Z,1.93
2018-07-30T17:05:41.101Z,1.60
2018-07-30T17:07:44.200Z,1.50
2018-07-30T17:09:47.284Z,1.90
2018-07-30T17:11:50.424Z,1.97
2018-07-30T17:13:53.540Z,2.03
2018-07-30T17:15:56.631Z,1.97
2018-07-30T17:17:59.734Z,2.10
2018-07-30T17:20:02.881Z,1.67
2018-07-30T17:22:05.763Z,2.80
2018-07-30T17:24:08.860Z,2.13
2018-07-30T17:26:11.959Z,1.97
2018-07-30T17:28:15.041Z,1.50
2018-07-30T17:30:18.144Z,2.07
2018-07-30T17:32:21.235Z,1.80
2018-07-30T17:34:24.431Z,2.17
2018-07-30T17:36:27.515Z,1.80
2018-07-30T17:38:30.656Z,1.80
2018-07-30T17:40:33.760Z,1.80
2018-07-30T17:42:37.119Z,2.57
2018-07-30T17:44:40.865Z,2.20
2018-07-30T17:46:43.972Z,2.10
2018-07-30T17:48:47.997Z,2.13
2018-07-30T17:50:51.081Z,2.30
2018-07-30T17:52:54.209Z,2.27
2018-07-30T17:54:57.320Z,2.47
2018-07-30T17:57:05.012Z,2.40
2018-07-30T17:59:08.110Z,2.90
2018-07-30T18:01:11.224Z,2.80
2018-07-30T18:03:14.315Z,2.60
2018-07-30T18:05:18.713Z,2.23
2018-07-30T18:07:22.556Z,2.57
2018-07-30T18:09:25.501Z,2.20
2018-07-30T18:11:28.630Z,2.10
2018-07-30T18:13:31.988Z,2.40
2018-07-30T18:15:36.011Z,2.73
2018-07-30T18:17:39.148Z,2.40
2018-07-30T18:19:42.328Z,2.43
2018-07-30T18:21:45.824Z,2.57
2018-07-30T18:23:48.988Z,2.13
2018-07-30T18:25:51.919Z,2.37
2018-07-30T18:27:55.084Z,2.60
2018-07-30T18:29:58.203Z,2.40
2018-07-30T18:32:01.341Z,2.07
2018-07-30T18:34:04.452Z,2.97
2018-07-30T18:36:07.599Z,2.90
2018-07-30T18:38:10.752Z,3.13
2018-07-30T18:40:14.016Z,2.40
2018-07-30T18:42:17.135Z,2.33
2018-07-30T18:44:20.048Z,2.67
2018-07-30T18:46:23.181Z,2.50
2018-07-30T18:48:26.379Z,2.60
2018-07-30T18:50:29.555Z,2.40
2018-07-30T18:52:32.670Z,2.30
2018-07-30T18:54:35.571Z,2.60
2018-07-30T18:56:38.721Z,1.83
2018-07-30T18:58:41.843Z,3.47
2018-07-30T19:00:45.068Z,3.17
2018-07-30T19:02:48.211Z,2.60
2018-07-30T19:04:51.333Z,3.30
2018-07-30T19:06:54.375Z,2.77
2018-07-30T19:08:57.656Z,3.37
2018-07-30T19:11:00.755Z,3.33
2018-07-30T19:13:04.088Z,3.90
2018-07-30T19:15:07.545Z,3.60
2018-07-30T19:17:10.667Z,3.60
2018-07-30T19:19:13.787Z,2.97
2018-07-30T19:21:16.667Z,3.17
2018-07-30T19:23:19.796Z,3.27
2018-07-30T19:25:22.984Z,3.90
2018-07-30T19:27:26.103Z,3.63
2018-07-30T19:29:29.246Z,3.90
2018-07-30T19:31:32.400Z,4.13
2018-07-30T19:33:35.564Z,4.23
2018-07-30T19:35:38.698Z,4.60
2018-07-30T19:49:50.049Z,4.20
2018-07-30T19:51:53.156Z,4.23
2018-07-30T19:53:56.324Z,8.30
2018-07-30T19:56:00.197Z,6.50
2018-07-30T19:58:03.543Z,4.03
2018-07-30T20:00:07.755Z,3.93
2018-07-30T20:02:10.949Z,4.23
2018-07-30T20:04:14.095Z,3.87
2018-07-30T20:06:17.255Z,3.27
2018-07-30T20:08:20.811Z,4.40
2018-07-30T20:10:23.999Z,3.13
2018-07-30T20:12:27.134Z,3.83
2018-07-30T20:14:30.267Z,4.17
2018-07-30T20:16:33.547Z,3.13
2018-07-30T20:18:36.697Z,4.20
2018-07-30T20:20:39.829Z,3.77
2018-07-30T20:22:43.199Z,3.63
2018-07-30T20:24:47.211Z,3.97
2018-07-30T20:26:50.313Z,4.40
2018-07-30T20:28:53.427Z,4.13
2018-07-30T20:30:56.600Z,4.73
2018-07-30T20:32:59.718Z,4.00
2018-07-30T20:35:03.004Z,4.80
2018-07-30T20:37:06.218Z,5.30
2018-07-30T20:39:09.539Z,4.33
2018-07-30T20:41:12.487Z,4.73
2018-07-30T20:43:15.613Z,5.53
2018-07-30T20:45:18.791Z,5.43
2018-07-30T20:47:21.923Z,4.93
2018-07-30T20:49:25.027Z,5.50
2018-07-30T20:51:28.150Z,5.60
2018-07-30T20:53:31.263Z,5.70
2018-07-30T20:55:34.384Z,4.63
2018-07-30T20:57:37.500Z,4.27
2018-07-30T20:59:40.845Z,4.77
2018-07-30T21:01:43.720Z,3.73
2018-07-30T21:03:46.908Z,5.30
2018-07-30T21:05:50.016Z,3.87
2018-07-30T21:07:53.152Z,4.73
2018-07-30T21:09:56.044Z,4.17
2018-07-30T21:11:59.202Z,3.43
2018-07-30T21:14:02.359Z,4.03
2018-07-30T21:16:05.580Z,4.10
2018-07-30T21:18:08.712Z,4.30
2018-07-30T21:20:11.816Z,4.07
2018-07-30T21:22:15.035Z,4.10
2018-07-30T21:24:18.149Z,3.63
2018-07-30T21:26:21.279Z,3.80
2018-07-30T21:28:24.407Z,3.97
2018-07-30T21:30:27.548Z,4.33
2018-07-30T21:32:30.690Z,3.57
2018-07-30T21:34:33.815Z,4.00
2018-07-30T21:36:36.936Z,3.93
2018-07-30T21:38:40.108Z,3.67
2018-07-30T21:40:43.219Z,3.57
2018-07-30T21:42:46.354Z,3.73
2018-07-30T21:44:49.489Z,4.27
2018-07-30T21:46:52.619Z,3.33
2018-07-30T21:48:55.735Z,3.60
2018-07-30T21:50:58.874Z,3.70
2018-07-30T21:53:02.053Z,3.90
2018-07-30T21:55:04.994Z,3.97
2018-07-30T21:57:08.117Z,4.40
2018-07-30T21:59:11.265Z,3.40
2018-07-30T22:01:14.416Z,3.33
2018-07-30T22:03:17.563Z,4.20
2018-07-30T22:05:20.724Z,4.47
2018-07-30T22:07:23.888Z,4.57
2018-07-30T22:09:27.004Z,3.67
2018-07-30T22:11:30.162Z,3.47
2018-07-30T22:13:33.295Z,5.20
2018-07-30T22:15:36.457Z,4.00
2018-07-30T22:17:39.620Z,3.77
2018-07-30T22:19:42.760Z,5.50
2018-07-30T22:21:45.890Z,5.60
2018-07-30T22:23:49.028Z,5.90
2018-07-30T22:25:52.183Z,4.83
2018-07-30T22:27:55.303Z,5.60
2018-07-30T22:29:58.841Z,4.90
2018-07-30T22:32:02.127Z,5.40
2018-07-30T22:34:05.228Z,5.47
2018-07-30T22:36:08.408Z,5.13
2018-07-30T22:38:11.515Z,6.00
2018-07-30T22:40:14.680Z,5.60
2018-07-30T22:42:17.798Z,6.03
2018-07-30T22:44:20.678Z,5.83
2018-07-30T22:46:23.800Z,6.13
2018-07-30T22:48:26.963Z,6.27
2018-07-30T22:50:30.114Z,5.00
2018-07-30T22:52:33.252Z,5.10
2018-07-30T22:54:36.369Z,5.07
2018-07-30T22:56:39.487Z,5.37
2018-07-30T22:58:42.419Z,5.67
2018-07-30T23:00:45.560Z,4.53
2018-07-30T23:02:48.684Z,4.27
2018-07-30T23:04:51.839Z,3.30
2018-07-30T23:06:54.987Z,4.33
2018-07-30T23:08:59.484Z,3.53
2018-07-30T23:11:02.853Z,4.60
2018-07-30T23:13:06.120Z,4.20
2018-07-30T23:15:09.352Z,4.50
2018-07-30T23:17:12.480Z,3.37
2018-07-30T23:19:15.627Z,4.50
2018-07-30T23:21:18.767Z,4.70
2018-07-30T23:23:21.907Z,3.47
2018-07-30T23:25:25.061Z,3.70
2018-07-30T23:27:28.197Z,3.80
2018-07-30T23:29:31.316Z,4.13
2018-07-30T23:31:34.456Z,4.03
2018-07-30T23:33:37.583Z,4.10
2018-07-30T23:35:40.712Z,4.30
2018-07-30T23:37:43.846Z,4.03
2018-07-30T23:39:46.969Z,3.63
2018-07-30T23:41:50.131Z,4.07
2018-07-30T23:43:53.264Z,4.30
2018-07-30T23:45:56.413Z,3.37
2018-07-30T23:47:59.538Z,3.50
2018-07-30T23:50:02.656Z,4.00
2018-07-30T23:52:05.782Z,3.37
2018-07-30T23:54:08.928Z,4.20
2018-07-30T23:56:12.064Z,3.93
2018-07-30T23:58:15.218Z,4.07
